Time;durP1;ratioP1;P1;durP2;ratioP2;P2;SDS_P1;SDS_P2;PMS_P1;PMS_P2;Temp;Humidity;BMP_temperature;BMP_pressure;BME280_temperature;BME280_humidity;BME280_pressure;Samples;Min_cycle;Max_cycle;Signal;HPM_P1;HPM_P2
2024/01/17 00:00:44;;;;;;;;;28.25;23.25;;;;;-144.62;100.00;60556.56;5027321;28;45457;-73
2024/01/17 00:03:10;;;;;;;;;32.75;25.00;;;;;-144.62;100.00;60556.56;5035806;27;45315;-73
2024/01/17 00:05:35;;;;;;;;;27.25;24.25;;;;;-144.62;100.00;60556.56;5029788;28;45495;-73
2024/01/17 00:08:01;;;;;;;;;15.00;8.25;;;;;-144.62;100.00;60556.56;5034868;28;45448;-73
2024/01/17 00:10:26;;;;;;;;;33.75;27.00;;;;;-144.62;100.00;60556.56;5038534;28;45302;-73
2024/01/17 00:12:52;;;;;;;;;33.00;25.50;;;;;-144.62;100.00;60556.56;5038005;28;45592;-73
2024/01/17 00:15:20;;;;;;;;;27.50;25.50;;;;;-144.62;100.00;60556.56;5028752;27;52601;-73
2024/01/17 00:17:48;;;;;;;;;34.50;32.00;;;;;-144.62;100.00;60556.56;5035577;28;45432;-73
2024/01/17 00:20:14;;;;;;;;;30.00;28.00;;;;;-144.62;100.00;60556.56;5027358;28;45391;-73
2024/01/17 00:22:39;;;;;;;;;33.50;24.00;;;;;-144.62;100.00;60556.56;5045599;28;45360;-73
2024/01/17 00:25:06;;;;;;;;;20.25;19.25;;;;;-144.62;100.00;60556.56;5034457;28;45341;-73
2024/01/17 00:27:32;;;;;;;;;33.25;28.25;;;;;-144.62;100.00;60556.56;5037899;28;45543;-73
2024/01/17 00:29:57;;;;;;;;;33.00;27.50;;;;;-144.62;100.00;60556.56;5030488;28;45395;-73
2024/01/17 00:32:26;;;;;;;;;33.50;29.00;;;;;-144.62;100.00;60556.56;5036609;28;45296;-73
2024/01/17 00:34:51;;;;;;;;;32.25;31.75;;;;;-144.62;100.00;60556.56;5048774;28;47553;-73
2024/01/17 00:37:17;;;;;;;;;34.50;31.25;;;;;-144.62;100.00;60556.56;5035593;28;45474;-73
2024/01/17 00:39:42;;;;;;;;;36.75;28.50;;;;;-144.62;100.00;60556.56;5027917;27;45474;-73
2024/01/17 00:42:08;;;;;;;;;28.75;26.50;;;;;-144.62;100.00;60556.56;5037432;28;45304;-73
2024/01/17 00:44:33;;;;;;;;;30.50;28.50;;;;;-144.62;100.00;60556.56;5034322;28;48298;-73
2024/01/17 00:46:59;;;;;;;;;29.75;29.00;;;;;-144.62;100.00;60556.56;5034690;28;45448;-73
2024/01/17 00:49:25;;;;;;;;;35.25;29.25;;;;;-144.62;100.00;60556.56;5037405;27;45446;-73
2024/01/17 00:51:50;;;;;;;;;32.00;25.00;;;;;-144.62;100.00;60556.56;5035554;27;45399;-73
2024/01/17 00:54:15;;;;;;;;;34.25;30.25;;;;;-144.62;100.00;60556.56;5035436;28;45458;-73
2024/01/17 00:56:41;;;;;;;;;38.75;28.75;;;;;-144.62;100.00;60556.56;5037494;27;45466;-73
2024/01/17 00:59:06;;;;;;;;;30.75;27.00;;;;;-144.62;100.00;60556.56;5043521;28;45481;-73
2024/01/17 01:01:31;;;;;;;;;32.75;30.00;;;;;-144.62;100.00;60556.56;5043843;28;45341;-73
2024/01/17 01:03:57;;;;;;;;;35.50;27.50;;;;;-144.62;100.00;60556.56;5045663;27;45277;-73
2024/01/17 01:06:23;;;;;;;;;25.75;20.00;;;;;-144.62;100.00;60556.56;5034345;28;45163;-72
2024/01/17 01:08:49;;;;;;;;;47.25;36.00;;;;;-144.62;100.00;60556.56;5030476;28;45359;-72
2024/01/17 01:11:14;;;;;;;;;31.25;29.75;;;;;-144.62;100.00;60556.56;5037517;28;45171;-72
2024/01/17 01:13:39;;;;;;;;;41.75;35.25;;;;;-144.62;100.00;60556.56;5037329;28;45929;-73
2024/01/17 01:16:05;;;;;;;;;31.00;28.75;;;;;-144.62;100.00;60556.56;5039163;28;45419;-73
2024/01/17 01:18:30;;;;;;;;;39.75;31.00;;;;;-144.62;100.00;60556.56;5035598;28;45499;-72
2024/01/17 01:20:57;;;;;;;;;33.75;30.25;;;;;-144.62;100.00;60556.56;5034165;28;45191;-73
2024/01/17 01:23:24;;;;;;;;;42.75;32.00;;;;;-144.62;100.00;60556.56;5035398;28;45453;-73
2024/01/17 01:25:50;;;;;;;;;34.25;29.50;;;;;-144.62;100.00;60556.56;5039478;28;45434;-73
2024/01/17 01:28:16;;;;;;;;;32.50;31.00;;;;;-144.62;100.00;60556.56;5038725;27;45539;-73
2024/01/17 01:30:41;;;;;;;;;40.75;33.00;;;;;-144.62;100.00;60556.56;5031581;28;45419;-73
2024/01/17 01:33:07;;;;;;;;;35.50;29.75;;;;;-144.62;100.00;60556.56;5038971;28;46452;-73
2024/01/17 01:35:32;;;;;;;;;40.00;32.25;;;;;-144.62;100.00;60556.56;5040007;28;45399;-73
2024/01/17 01:37:58;;;;;;;;;45.00;35.25;;;;;-144.62;100.00;60556.56;5039139;28;45481;-73
2024/01/17 01:40:23;;;;;;;;;39.00;34.00;;;;;-144.62;100.00;60556.56;5032242;28;45231;-73
2024/01/17 01:42:48;;;;;;;;;36.00;32.25;;;;;-144.62;100.00;60556.56;5039378;28;48149;-73
2024/01/17 01:45:14;;;;;;;;;40.75;28.00;;;;;-144.62;100.00;60556.56;5035083;28;45584;-73
2024/01/17 01:47:39;;;;;;;;;38.75;34.75;;;;;-144.62;100.00;60556.56;5039099;27;45391;-73
2024/01/17 01:50:06;;;;;;;;;38.50;33.75;;;;;-144.62;100.00;60556.56;5038316;28;45412;-73
2024/01/17 01:52:33;;;;;;;;;32.50;30.50;;;;;-144.62;100.00;60556.56;5041560;27;46191;-73
2024/01/17 01:54:59;;;;;;;;;36.50;31.00;;;;;-144.62;100.00;60556.56;5039885;28;45456;-73
2024/01/17 01:57:26;;;;;;;;;45.00;36.25;;;;;-144.62;100.00;60556.56;5036921;27;45334;-73
2024/01/17 01:59:52;;;;;;;;;30.75;30.75;;;;;-144.62;100.00;60556.56;5026374;28;45267;-73
2024/01/17 02:02:17;;;;;;;;;37.25;32.00;;;;;-144.62;100.00;60556.56;5040919;28;46582;-73
2024/01/17 02:04:43;;;;;;;;;43.50;35.75;;;;;-144.62;100.00;60556.56;5026470;28;45492;-73
2024/01/17 02:07:11;;;;;;;;;41.50;37.25;;;;;-144.62;100.00;60556.56;5027834;28;45779;-73
2024/01/17 02:09:36;;;;;;;;;38.75;31.25;;;;;-144.62;100.00;60556.56;5029756;28;45519;-73
2024/01/17 02:12:03;;;;;;;;;46.00;36.25;;;;;-144.62;100.00;60556.56;5032402;28;45400;-73
2024/01/17 02:14:29;;;;;;;;;40.50;34.50;;;;;-144.62;100.00;60556.56;5034928;28;45467;-73
2024/01/17 02:16:55;;;;;;;;;43.75;35.50;;;;;-144.62;100.00;60556.56;5030918;28;45427;-73
2024/01/17 02:19:21;;;;;;;;;40.50;37.50;;;;;-144.62;100.00;60556.56;5039524;28;45406;-74
2024/01/17 02:21:46;;;;;;;;;39.50;31.50;;;;;-144.62;100.00;60556.56;5032303;28;45785;-74
2024/01/17 02:24:23;;;;;;;;;43.75;36.00;;;;;-144.62;100.00;60556.56;5037502;28;45520;-74
2024/01/17 02:26:49;;;;;;;;;45.00;36.75;;;;;-144.62;100.00;60556.56;5041715;27;45233;-74
2024/01/17 02:29:14;;;;;;;;;37.75;32.75;;;;;-144.62;100.00;60556.56;5039577;28;46266;-74
2024/01/17 02:31:40;;;;;;;;;38.75;31.50;;;;;-144.62;100.00;60556.56;5041315;27;47764;-74
2024/01/17 02:34:05;;;;;;;;;54.25;40.50;;;;;-144.62;100.00;60556.56;5034975;28;45403;-74
2024/01/17 02:36:31;;;;;;;;;43.25;33.25;;;;;-144.62;100.00;60556.56;5037071;27;45392;-74
2024/01/17 02:38:56;;;;;;;;;35.25;29.50;;;;;-144.62;100.00;60556.56;5049140;28;45566;-74
2024/01/17 02:41:21;;;;;;;;;33.00;32.50;;;;;-144.62;100.00;60556.56;5037628;28;45505;-74
2024/01/17 02:43:47;;;;;;;;;33.00;30.75;;;;;-144.62;100.00;60556.56;5038908;28;45501;-74
2024/01/17 02:46:12;;;;;;;;;37.50;35.25;;;;;-144.62;100.00;60556.56;5038839;28;45346;-74
2024/01/17 02:48:37;;;;;;;;;42.25;37.75;;;;;-144.62;100.00;60556.56;5035530;27;45474;-75
2024/01/17 02:51:03;;;;;;;;;37.25;31.25;;;;;-144.62;100.00;60556.56;5039646;28;47766;-74
2024/01/17 02:53:28;;;;;;;;;47.00;37.00;;;;;-144.62;100.00;60556.56;5037975;28;45408;-74
2024/01/17 02:55:54;;;;;;;;;46.50;35.25;;;;;-144.62;100.00;60556.56;5033050;28;45253;-74
2024/01/17 02:58:19;;;;;;;;;44.00;35.50;;;;;-144.62;100.00;60556.56;5036708;27;45395;-74
2024/01/17 03:00:44;;;;;;;;;37.25;28.00;;;;;-144.62;100.00;60556.56;5029861;28;46332;-75
2024/01/17 03:03:10;;;;;;;;;42.50;38.00;;;;;-144.62;100.00;60556.56;5034674;28;45250;-75
2024/01/17 03:05:37;;;;;;;;;46.00;41.00;;;;;-144.62;100.00;60556.56;5039581;28;45254;-74
2024/01/17 03:08:04;;;;;;;;;48.25;38.75;;;;;-144.62;100.00;60556.56;5035663;28;45210;-75
2024/01/17 03:10:29;;;;;;;;;47.00;38.25;;;;;-144.62;100.00;60556.56;5049338;28;46814;-75
2024/01/17 03:12:55;;;;;;;;;51.00;41.50;;;;;-144.62;100.00;60556.56;5038595;28;45343;-75
2024/01/17 03:15:21;;;;;;;;;44.75;38.25;;;;;-144.62;100.00;60556.56;5029718;28;45447;-75
2024/01/17 03:17:46;;;;;;;;;43.75;38.00;;;;;-144.62;100.00;60556.56;5038088;27;45536;-75
2024/01/17 03:20:12;;;;;;;;;46.25;33.75;;;;;-144.62;100.00;60556.56;5033989;27;45413;-75
2024/01/17 03:22:38;;;;;;;;;56.50;41.75;;;;;-144.62;100.00;60556.56;5037164;27;45361;-76
2024/01/17 03:25:04;;;;;;;;;62.75;40.25;;;;;-144.62;100.00;60556.56;5038238;28;45476;-76
2024/01/17 03:27:29;;;;;;;;;31.75;29.25;;;;;-144.62;100.00;60556.56;5040021;28;45372;-76
2024/01/17 03:29:55;;;;;;;;;43.50;37.50;;;;;-144.62;100.00;60556.56;5034648;28;45563;-76
2024/01/17 03:32:20;;;;;;;;;27.75;20.25;;;;;-144.62;100.00;60556.56;5038503;28;45292;-76
2024/01/17 03:34:46;;;;;;;;;51.75;40.25;;;;;-144.62;100.00;60556.56;5028159;28;45382;-77
2024/01/17 03:37:12;;;;;;;;;53.25;37.75;;;;;-144.62;100.00;60556.56;5045780;28;46308;-76
2024/01/17 03:39:41;;;;;;;;;44.50;38.75;;;;;-144.62;100.00;60556.56;5030815;28;45288;-76
2024/01/17 03:42:07;;;;;;;;;44.50;39.75;;;;;-144.62;100.00;60556.56;5036932;28;45491;-77
2024/01/17 03:44:32;;;;;;;;;48.75;40.25;;;;;-144.62;100.00;60556.56;5034418;28;45441;-77
2024/01/17 03:46:57;;;;;;;;;55.50;41.50;;;;;-144.62;100.00;60556.56;5039122;27;45261;-76
2024/01/17 03:49:23;;;;;;;;;42.25;35.50;;;;;-144.62;100.00;60556.56;5037128;27;53145;-76
2024/01/17 03:51:48;;;;;;;;;52.50;42.50;;;;;-144.62;100.00;60556.56;5039433;27;45355;-77
2024/01/17 03:54:14;;;;;;;;;47.50;40.25;;;;;-144.62;100.00;60556.56;5026911;28;45361;-77
2024/01/17 03:56:39;;;;;;;;;44.75;38.25;;;;;-144.62;100.00;60556.56;5033781;27;45320;-77
2024/01/17 03:59:05;;;;;;;;;52.25;40.00;;;;;-144.62;100.00;60556.56;5030141;28;45425;-77
2024/01/17 04:01:31;;;;;;;;;47.00;38.75;;;;;-144.62;100.00;60556.56;5044731;27;45405;-76
2024/01/17 04:03:56;;;;;;;;;58.25;43.50;;;;;-144.62;100.00;60556.56;5029056;28;45489;-77
2024/01/17 04:06:22;;;;;;;;;46.50;36.75;;;;;-144.62;100.00;60556.56;5035860;28;45315;-77
2024/01/17 04:08:48;;;;;;;;;47.50;39.50;;;;;-144.62;100.00;60556.56;5036653;27;47208;-77
2024/01/17 04:11:13;;;;;;;;;45.25;28.75;;;;;-144.62;100.00;60556.56;5036344;28;45263;-77
2024/01/17 04:13:41;;;;;;;;;51.75;42.25;;;;;-144.62;100.00;60556.56;5032515;28;45256;-77
2024/01/17 04:16:07;;;;;;;;;41.75;37.00;;;;;-144.62;100.00;60556.56;5030669;28;45374;-77
2024/01/17 04:18:32;;;;;;;;;46.75;40.25;;;;;-144.62;100.00;60556.56;5033686;27;45749;-77
2024/01/17 04:20:58;;;;;;;;;51.50;41.25;;;;;-144.62;100.00;60556.56;5031353;28;45320;-77
2024/01/17 04:23:23;;;;;;;;;45.50;39.25;;;;;-144.62;100.00;60556.56;5034553;28;44775;-77
2024/01/17 04:25:49;;;;;;;;;46.25;39.25;;;;;-144.62;100.00;60556.56;5039607;28;45326;-77
2024/01/17 04:28:17;;;;;;;;;48.25;39.25;;;;;-144.62;100.00;60556.56;5038049;28;47912;-77
2024/01/17 04:30:43;;;;;;;;;60.50;41.75;;;;;-144.62;100.00;60556.56;5032548;28;45393;-77
2024/01/17 04:33:09;;;;;;;;;51.25;41.25;;;;;-144.62;100.00;60556.56;5036041;28;45350;-77
2024/01/17 04:35:34;;;;;;;;;55.50;42.00;;;;;-144.62;100.00;60556.56;5028454;28;45211;-77
2024/01/17 04:38:00;;;;;;;;;57.25;43.25;;;;;-144.62;100.00;60556.56;5036584;28;45444;-77
2024/01/17 04:40:25;;;;;;;;;50.75;40.50;;;;;-144.62;100.00;60556.56;5025721;28;45355;-77
2024/01/17 04:42:51;;;;;;;;;53.50;45.00;;;;;-144.62;100.00;60556.56;5038245;28;45161;-77
2024/01/17 04:45:19;;;;;;;;;47.75;40.00;;;;;-144.62;100.00;60556.56;5036394;27;45580;-77
2024/01/17 04:47:44;;;;;;;;;52.00;42.25;;;;;-144.62;100.00;60556.56;5040865;28;45663;-77
2024/01/17 04:50:13;;;;;;;;;44.75;42.25;;;;;-144.62;100.00;60556.56;5044719;28;45472;-77
2024/01/17 04:52:38;;;;;;;;;56.50;42.50;;;;;-144.62;100.00;60556.56;5039774;28;45256;-76
2024/01/17 04:55:04;;;;;;;;;52.00;42.00;;;;;-144.62;100.00;60556.56;5024419;28;45520;-77
2024/01/17 04:57:30;;;;;;;;;45.00;41.00;;;;;-144.62;100.00;60556.56;5041933;27;45384;-77
2024/01/17 04:59:55;;;;;;;;;44.75;38.25;;;;;-144.62;100.00;60556.56;5028287;27;45372;-77
2024/01/17 05:02:20;;;;;;;;;47.50;38.75;;;;;-144.62;100.00;60556.56;5040920;28;45912;-78
2024/01/17 05:04:46;;;;;;;;;58.75;44.75;;;;;-144.62;100.00;60556.56;5028969;28;45258;-77
2024/01/17 05:07:11;;;;;;;;;47.00;39.25;;;;;-144.62;100.00;60556.56;5041997;28;45408;-77
2024/01/17 05:09:37;;;;;;;;;57.50;45.00;;;;;-144.62;100.00;60556.56;5038995;27;45390;-77
2024/01/17 05:12:03;;;;;;;;;52.50;40.50;;;;;-144.62;100.00;60556.56;5040887;28;45371;-77
2024/01/17 05:14:29;;;;;;;;;45.75;36.25;;;;;-144.62;100.00;60556.56;5040052;28;45474;-76
2024/01/17 05:16:54;;;;;;;;;55.00;44.00;;;;;-144.62;100.00;60556.56;5033163;28;45337;-77
2024/01/17 05:19:19;;;;;;;;;57.50;41.00;;;;;-144.62;100.00;60556.56;5034782;28;45366;-77
2024/01/17 05:21:45;;;;;;;;;61.00;46.00;;;;;-144.62;100.00;60556.56;5040876;28;45335;-77
2024/01/17 05:24:10;;;;;;;;;48.00;41.50;;;;;-144.62;100.00;60556.56;5044405;28;45587;-77
2024/01/17 05:26:35;;;;;;;;;54.00;41.00;;;;;-144.62;100.00;60556.56;5042161;28;46350;-77
2024/01/17 05:29:01;;;;;;;;;50.25;42.00;;;;;-144.62;100.00;60556.56;5040758;28;45389;-77
2024/01/17 05:31:26;;;;;;;;;58.25;44.75;;;;;-144.62;100.00;60556.56;5041774;27;45625;-78
2024/01/17 05:33:52;;;;;;;;;53.25;42.00;;;;;-144.62;100.00;60556.56;5033156;28;45252;-77
2024/01/17 05:36:17;;;;;;;;;54.00;41.00;;;;;-144.62;100.00;60556.56;5037021;28;47162;-78
2024/01/17 05:38:42;;;;;;;;;49.00;37.25;;;;;-144.62;100.00;60556.56;5048579;28;45420;-78
2024/01/17 05:41:09;;;;;;;;;48.00;41.50;;;;;-144.62;100.00;60556.56;5037359;28;45430;-78
2024/01/17 05:43:34;;;;;;;;;41.00;39.00;;;;;-144.62;100.00;60556.56;5038810;28;45511;-78
2024/01/17 05:45:59;;;;;;;;;54.00;45.25;;;;;-144.62;100.00;60556.56;5039141;28;49555;-78
2024/01/17 05:48:25;;;;;;;;;48.25;39.25;;;;;-144.62;100.00;60556.56;5038749;28;45402;-78
2024/01/17 05:50:51;;;;;;;;;42.50;35.25;;;;;-144.62;100.00;60556.56;5039581;28;45330;-78
2024/01/17 05:53:16;;;;;;;;;45.25;39.75;;;;;-144.62;100.00;60556.56;5039122;28;45428;-78
2024/01/17 05:55:42;;;;;;;;;40.50;37.00;;;;;-144.62;100.00;60556.56;5026712;28;46425;-78
2024/01/17 05:58:09;;;;;;;;;51.25;40.50;;;;;-144.62;100.00;60556.56;5053563;27;45311;-78
2024/01/17 06:00:34;;;;;;;;;48.75;39.50;;;;;-144.62;100.00;60556.56;5028589;28;45388;-78
2024/01/17 06:03:00;;;;;;;;;45.75;40.50;;;;;-144.62;100.00;60556.56;5033684;28;45368;-79
2024/01/17 06:05:25;;;;;;;;;59.75;42.75;;;;;-144.62;100.00;60556.56;5031215;28;45366;-78
2024/01/17 06:07:51;;;;;;;;;51.75;38.25;;;;;-144.62;100.00;60556.56;5036236;28;45395;-79
2024/01/17 06:10:17;;;;;;;;;53.00;36.50;;;;;-144.62;100.00;60556.56;5037486;28;45445;-79
2024/01/17 06:12:42;;;;;;;;;45.25;37.75;;;;;-144.62;100.00;60556.56;5041470;28;45296;-79
2024/01/17 06:15:09;;;;;;;;;59.00;44.00;;;;;-144.62;100.00;60556.56;5028484;27;48206;-79
2024/01/17 06:17:35;;;;;;;;;45.00;39.00;;;;;-144.62;100.00;60556.56;5050705;28;45711;-78
2024/01/17 06:20:01;;;;;;;;;56.75;42.00;;;;;-144.62;100.00;60556.56;5035612;28;45330;-79
2024/01/17 06:22:26;;;;;;;;;48.00;39.00;;;;;-144.62;100.00;60556.56;5038770;27;45162;-78
2024/01/17 06:24:52;;;;;;;;;51.25;41.00;;;;;-144.62;100.00;60556.56;5036348;28;45601;-78
2024/01/17 06:27:18;;;;;;;;;45.00;38.00;;;;;-144.62;100.00;60556.56;5039231;28;45384;-78
2024/01/17 06:29:44;;;;;;;;;49.00;37.75;;;;;-144.62;100.00;60556.56;5027618;27;45297;-78
2024/01/17 06:32:10;;;;;;;;;44.25;40.25;;;;;-144.62;100.00;60556.56;5037409;28;45305;-78
2024/01/17 06:34:36;;;;;;;;;45.25;38.50;;;;;-144.62;100.00;60556.56;5033851;28;46807;-76
2024/01/17 06:37:03;;;;;;;;;44.75;37.75;;;;;-144.62;100.00;60556.56;5039884;28;45360;-78
2024/01/17 06:39:32;;;;;;;;;45.50;37.75;;;;;-144.62;100.00;60556.56;5032369;28;45409;-78
2024/01/17 06:41:58;;;;;;;;;46.50;40.00;;;;;-144.62;100.00;60556.56;5053573;28;45497;-78
2024/01/17 06:44:23;;;;;;;;;43.75;38.25;;;;;-144.62;100.00;60556.56;5035494;27;45569;-78
2024/01/17 06:46:48;;;;;;;;;48.25;40.75;;;;;-144.62;100.00;60556.56;5033849;28;45370;-78
2024/01/17 06:49:14;;;;;;;;;40.75;36.50;;;;;-144.62;100.00;60556.56;5033781;27;45502;-78
2024/01/17 06:51:39;;;;;;;;;39.50;38.00;;;;;-144.62;100.00;60556.56;5040733;28;45576;-78
2024/01/17 06:54:05;;;;;;;;;51.50;36.00;;;;;-144.62;100.00;60556.56;5030316;27;45458;-77
2024/01/17 06:56:32;;;;;;;;;44.50;36.25;;;;;-144.62;100.00;60556.56;5034983;27;45325;-77
2024/01/17 06:58:58;;;;;;;;;35.75;32.50;;;;;-144.62;100.00;60556.56;5038078;28;45444;-77
2024/01/17 07:01:23;;;;;;;;;43.50;39.50;;;;;-144.62;100.00;60556.56;5038019;28;45323;-77
2024/01/17 07:03:48;;;;;;;;;40.00;33.75;;;;;-144.62;100.00;60556.56;5033361;27;46465;-80
2024/01/17 07:06:14;;;;;;;;;38.75;34.75;;;;;-144.62;100.00;60556.56;5034560;28;56157;-77
2024/01/17 07:08:40;;;;;;;;;37.00;32.50;;;;;-144.62;100.00;60556.56;5035766;28;45401;-79
2024/01/17 07:11:05;;;;;;;;;42.50;36.00;;;;;-144.62;100.00;60556.56;5036478;28;45414;-78
2024/01/17 07:13:30;;;;;;;;;35.75;31.00;;;;;-144.62;100.00;60556.56;5032314;28;46533;-79
2024/01/17 07:15:56;;;;;;;;;39.25;34.75;;;;;-144.62;100.00;60556.56;5026871;28;45239;-77
2024/01/17 07:18:21;;;;;;;;;40.00;30.25;;;;;-144.62;100.00;60556.56;5031882;28;45507;-79
2024/01/17 07:20:47;;;;;;;;;54.50;35.50;;;;;-144.62;100.00;60556.56;5036045;28;45399;-77
2024/01/17 07:23:12;;;;;;;;;40.25;32.75;;;;;-144.62;100.00;60556.56;5035388;28;45519;-75
2024/01/17 07:25:40;;;;;;;;;36.75;30.25;;;;;-144.62;100.00;60556.56;5038723;28;45387;-77
2024/01/17 07:28:05;;;;;;;;;43.75;33.00;;;;;-144.62;100.00;60556.56;5036985;28;45279;-74
2024/01/17 07:30:31;;;;;;;;;33.50;27.25;;;;;-144.62;100.00;60556.56;5035869;28;45312;-78
2024/01/17 07:32:57;;;;;;;;;43.50;34.25;;;;;-144.62;100.00;60556.56;5037458;28;45565;-75
2024/01/17 07:35:22;;;;;;;;;40.50;32.25;;;;;-144.62;100.00;60556.56;5028247;28;45255;-76
2024/01/17 07:37:48;;;;;;;;;34.50;28.50;;;;;-144.62;100.00;60556.56;5036448;28;54206;-74
2024/01/17 07:40:14;;;;;;;;;35.00;31.25;;;;;-144.62;100.00;60556.56;5031380;28;45824;-76
2024/01/17 07:42:40;;;;;;;;;30.00;27.00;;;;;-144.62;100.00;60556.56;5037302;27;45489;-76
2024/01/17 07:45:06;;;;;;;;;28.25;26.75;;;;;-144.62;100.00;60556.56;5033390;28;45316;-75
2024/01/17 07:47:31;;;;;;;;;38.00;29.25;;;;;-144.62;100.00;60556.56;5038756;28;45235;-76
2024/01/17 07:49:59;;;;;;;;;36.75;30.75;;;;;-144.62;100.00;60556.56;5035933;28;45396;-76
2024/01/17 07:52:25;;;;;;;;;31.00;25.00;;;;;-144.62;100.00;60556.56;5032281;27;48083;-77
2024/01/17 07:54:50;;;;;;;;;36.25;28.50;;;;;-144.62;100.00;60556.56;5022995;28;45379;-77
2024/01/17 07:57:15;;;;;;;;;31.00;27.00;;;;;-144.62;100.00;60556.56;5036821;27;45342;-76
2024/01/17 07:59:41;;;;;;;;;35.00;29.50;;;;;-144.62;100.00;60556.56;5028176;28;45638;-75
2024/01/17 08:02:07;;;;;;;;;30.50;26.50;;;;;-144.62;100.00;60556.56;5040024;27;45388;-78
2024/01/17 08:04:32;;;;;;;;;30.25;27.50;;;;;-144.62;100.00;60556.56;5031226;28;45538;-74
2024/01/17 08:06:58;;;;;;;;;26.50;23.00;;;;;-144.62;100.00;60556.56;5035856;28;45225;-76
2024/01/17 08:09:26;;;;;;;;;30.50;26.25;;;;;-144.62;100.00;60556.56;5031948;28;45349;-75
2024/01/17 08:11:52;;;;;;;;;37.75;28.00;;;;;-144.62;100.00;60556.56;5038403;27;45266;-76
2024/01/17 08:14:17;;;;;;;;;41.50;30.00;;;;;-144.62;100.00;60556.56;5032959;28;45356;-75
2024/01/17 08:16:44;;;;;;;;;30.75;23.75;;;;;-144.62;100.00;60556.56;5031709;27;45450;-76
2024/01/17 08:19:09;;;;;;;;;35.50;26.25;;;;;-144.62;100.00;60556.56;5033070;27;45238;-75
2024/01/17 08:21:34;;;;;;;;;29.50;27.00;;;;;-144.62;100.00;60556.56;5030751;28;45683;-77
2024/01/17 08:24:00;;;;;;;;;29.75;28.50;;;;;-144.62;100.00;60556.56;5035441;28;45412;-76
2024/01/17 08:26:26;;;;;;;;;29.75;26.00;;;;;-144.62;100.00;60556.56;5038697;28;45388;-77
2024/01/17 08:28:51;;;;;;;;;27.75;25.50;;;;;-144.62;100.00;60556.56;5033613;28;45464;-75
2024/01/17 08:31:17;;;;;;;;;29.25;24.25;;;;;-144.62;100.00;60556.56;5033875;28;46438;-75
2024/01/17 08:33:43;;;;;;;;;27.75;23.00;;;;;-144.62;100.00;60556.56;5031343;28;45470;-74
2024/01/17 08:36:08;;;;;;;;;24.25;24.25;;;;;-144.62;100.00;60556.56;5032803;28;45291;-76
2024/01/17 08:38:35;;;;;;;;;31.00;27.00;;;;;-144.62;100.00;60556.56;5033381;28;45595;-77
2024/01/17 08:41:00;;;;;;;;;29.75;25.00;;;;;-144.62;100.00;60556.56;5034437;28;46839;-75
2024/01/17 08:43:26;;;;;;;;;34.00;25.50;;;;;-144.62;100.00;60556.56;5036728;28;45237;-76
2024/01/17 08:45:51;;;;;;;;;31.00;27.00;;;;;-144.62;100.00;60556.56;5036433;27;45444;-76
2024/01/17 08:48:16;;;;;;;;;29.50;27.50;;;;;-144.62;100.00;60556.56;5036526;28;45318;-76
2024/01/17 08:50:41;;;;;;;;;28.50;24.75;;;;;-144.62;100.00;60556.56;5037990;28;45389;-77
2024/01/17 08:53:07;;;;;;;;;30.25;23.00;;;;;-144.62;100.00;60556.56;5033536;28;45245;-75
2024/01/17 08:55:32;;;;;;;;;24.00;24.00;;;;;-144.62;100.00;60556.56;5024541;28;45422;-76
2024/01/17 08:57:57;;;;;;;;;27.75;24.00;;;;;-144.62;100.00;60556.56;5036762;27;45409;-76
2024/01/17 09:00:23;;;;;;;;;25.25;24.00;;;;;-144.62;100.00;60556.56;5025909;28;45525;-75
2024/01/17 09:02:48;;;;;;;;;30.75;22.75;;;;;-144.62;100.00;60556.56;5033649;28;61619;-76
2024/01/17 09:05:13;;;;;;;;;29.25;26.75;;;;;-144.62;100.00;60556.56;5034827;28;45452;-76
2024/01/17 09:07:43;;;;;;;;;35.00;29.50;;;;;-144.62;100.00;60556.56;5035157;28;45283;-75
2024/01/17 09:10:09;;;;;;;;;24.50;23.75;;;;;-144.62;100.00;60556.56;5043894;28;47203;-76
2024/01/17 09:12:34;;;;;;;;;24.50;23.25;;;;;-144.62;100.00;60556.56;5030910;28;45444;-77
2024/01/17 09:14:59;;;;;;;;;28.25;20.50;;;;;-144.62;100.00;60556.56;5038619;27;45293;-75
2024/01/17 09:17:27;;;;;;;;;24.50;18.75;;;;;-144.62;100.00;60556.56;5037296;27;45644;-75
2024/01/17 09:19:53;;;;;;;;;20.75;16.75;;;;;-144.62;100.00;60556.56;5031218;28;45685;-77
2024/01/17 09:22:18;;;;;;;;;22.25;22.25;;;;;-144.62;100.00;60556.56;5033837;28;45300;-75
2024/01/17 09:24:43;;;;;;;;;21.50;19.00;;;;;-144.62;100.00;60556.56;5034012;28;45442;-76
2024/01/17 09:27:09;;;;;;;;;24.25;19.75;;;;;-144.62;100.00;60556.56;5038684;28;45540;-76
2024/01/17 09:29:35;;;;;;;;;25.25;20.00;;;;;-144.62;100.00;60556.56;5028129;27;45348;-76
2024/01/17 09:32:00;;;;;;;;;19.67;14.00;;;;;-144.62;100.00;60556.56;5051169;28;45505;-75
2024/01/17 09:34:27;;;;;;;;;19.25;17.50;;;;;-144.62;100.00;60556.56;5033605;28;45498;-75
2024/01/17 09:36:52;;;;;;;;;22.50;22.50;;;;;-144.62;100.00;60556.56;5039104;28;45453;-75
2024/01/17 09:39:18;;;;;;;;;22.00;17.33;;;;;-144.62;100.00;60556.56;5035491;27;45671;-74
2024/01/17 09:41:44;;;;;;;;;21.25;20.00;;;;;-144.62;100.00;60556.56;5039718;28;45204;-74
2024/01/17 09:44:10;;;;;;;;;23.00;22.00;;;;;-144.62;100.00;60556.56;5038089;28;45365;-73
2024/01/17 09:46:42;;;;;;;;;25.67;20.33;;;;;-144.62;100.00;60556.56;5041037;28;45298;-75
2024/01/17 09:49:08;;;;;;;;;20.00;18.00;;;;;-144.62;100.00;60556.56;5037303;27;46764;-76
2024/01/17 09:51:35;;;;;;;;;17.67;16.33;;;;;-144.62;100.00;60556.56;5033529;28;45247;-74
2024/01/17 09:54:04;;;;;;;;;24.00;17.67;;;;;-144.62;100.00;60556.56;5032185;28;45391;-76
2024/01/17 09:56:32;;;;;;;;;22.00;21.75;;;;;-144.62;100.00;60556.56;5035643;27;45483;-76
2024/01/17 09:59:01;;;;;;;;;18.00;16.33;;;;;-144.62;100.00;60556.56;5031842;28;45537;-75
2024/01/17 10:01:29;;;;;;;;;20.33;20.33;;;;;-144.62;100.00;60556.56;5036832;28;45294;-75
2024/01/17 10:03:56;;;;;;;;;22.67;22.00;;;;;-144.62;100.00;60556.56;5034401;28;45277;-74
2024/01/17 10:06:23;;;;;;;;;17.33;16.67;;;;;-144.62;100.00;60556.56;5045721;28;45376;-75
2024/01/17 10:08:49;;;;;;;;;26.00;20.00;;;;;-144.62;100.00;60556.56;5034722;28;46669;-76
2024/01/17 10:11:14;;;;;;;;;26.25;23.25;;;;;-144.62;100.00;60556.56;5040979;28;45640;-75
2024/01/17 10:13:40;;;;;;;;;15.00;15.00;;;;;-144.62;100.00;60556.56;5037438;28;45208;-75
2024/01/17 10:16:05;;;;;;;;;18.67;16.00;;;;;-144.62;100.00;60556.56;5033199;27;45622;-76
2024/01/17 10:18:35;;;;;;;;;21.00;16.33;;;;;-144.62;100.00;60556.56;5039270;27;46686;-75
2024/01/17 10:21:03;;;;;;;;;25.75;19.75;;;;;-144.62;100.00;60556.56;5029675;28;45418;-76
2024/01/17 10:23:29;;;;;;;;;22.67;18.67;;;;;-144.62;100.00;60556.56;5035995;28;45284;-76
2024/01/17 10:25:54;;;;;;;;;22.33;16.33;;;;;-144.62;100.00;60556.56;5041543;28;45499;-76
2024/01/17 10:28:20;;;;;;;;;22.67;19.00;;;;;-144.62;100.00;60556.56;5052006;28;46941;-75
2024/01/17 10:30:45;;;;;;;;;16.00;15.33;;;;;-144.62;100.00;60556.56;5031850;28;45290;-75
2024/01/17 10:33:10;;;;;;;;;20.75;17.25;;;;;-144.62;100.00;60556.56;5053225;28;45615;-77
2024/01/17 10:35:37;;;;;;;;;18.00;14.67;;;;;-144.62;100.00;60556.56;5038206;28;45352;-76
2024/01/17 10:38:03;;;;;;;;;19.00;18.33;;;;;-144.62;100.00;60556.56;5038205;28;45513;-75
2024/01/17 10:40:29;;;;;;;;;21.00;18.25;;;;;-144.62;100.00;60556.56;5037349;28;45445;-75
2024/01/17 10:43:09;;;;;;;;;21.67;18.67;;;;;-144.62;100.00;60556.56;5037344;28;45435;-75
2024/01/17 10:45:36;;;;;;;;;14.67;13.00;;;;;-144.62;100.00;60556.56;5040348;28;45469;-74
2024/01/17 10:48:02;;;;;;;;;22.33;18.00;;;;;-144.62;100.00;60556.56;5038954;28;45344;-76